CYUL/YUL METAR and TAF weather

Enter ICAO airport designator
Station Type Date Time Source
CYUL METAR 2022/06/28 15:00 UTC NOAA

CYUL 281500Z VRB07KT 30SM SCT050 SCT080 21/09 A3012 RMK CU3AC1 SLP201 DENSITY ALT 600FT


Station Type Date Time Source
CYUL Decoded METAR 2022/06/28 15:00 UTC NOAA

Montreal / Pierre Elliot Trudeau International Airport, Que, Canada (CYUL) 45-28N 073-45W 36M
Jun 28, 2022 - 11:00 AM EDT / 2022.06.28 1500 UTC
Wind: Variable at 8 MPH (7 KT):0
Visibility: 30 mile(s):0
Sky conditions: partly cloudy
Temperature: 69 F (21 C)
Dew Point: 48 F (9 C)
Relative Humidity: 46%
Pressure (altimeter): 30.12 in. Hg (1019 hPa)
ob: CYUL 281500Z VRB07KT 30SM SCT050 SCT080 21/09 A3012 RMK CU3AC1 SLP201 DENSITY ALT 600FT
cycle: 15

Station Type Date Time Source
CYUL TAF 2022/06/28 15:45 UTC NOAA

TAF CYUL 281440Z 2815/2912 23005KT P6SM FEW050 SCT080
FM281700 23012KT P6SM SCT050
TEMPO 2817/2823 BKN050
FM290200 21010KT P6SM SKC
RMK NXT FCST BY 281800Z

Example: see airport list